Time;durP1;ratioP1;P1;durP2;ratioP2;P2;SDS_P1;SDS_P2;PMS_P1;PMS_P2;Temp;Humidity;BMP_temperature;BMP_pressure;BME280_temperature;BME280_humidity;BME280_pressure;Samples;Min_cycle;Max_cycle;Signal;HPM_P1;HPM_P2
2023/08/07 00:01:44;;;;;;;3.80;1.37;;;11.80;25.80;;;;;;4954677;28;20654;-73
2023/08/07 00:04:10;;;;;;;3.00;1.40;;;11.80;25.60;;;;;;4954806;28;20173;-73
2023/08/07 00:06:35;;;;;;;5.10;1.23;;;11.80;26.20;;;;;;4954852;28;20206;-73
2023/08/07 00:09:01;;;;;;;2.83;1.30;;;11.80;24.90;;;;;;4954739;28;20652;-73
2023/08/07 00:11:28;;;;;;;2.13;1.00;;;11.80;25.20;;;;;;4954546;28;20256;-73
2023/08/07 00:13:54;;;;;;;2.07;0.97;;;11.80;26.00;;;;;;4954673;28;20202;-73
2023/08/07 00:16:19;;;;;;;2.83;1.13;;;11.80;25.40;;;;;;4954637;28;20419;-73
2023/08/07 00:18:45;;;;;;;3.43;1.37;;;11.80;24.80;;;;;;4953262;29;20201;-73
2023/08/07 00:21:11;;;;;;;2.13;0.90;;;11.80;24.90;;;;;;4954318;28;20210;-73
2023/08/07 00:23:36;;;;;;;2.80;1.37;;;11.80;25.00;;;;;;4954300;28;20171;-73
2023/08/07 00:26:02;;;;;;;2.20;1.07;;;11.70;25.10;;;;;;4954501;28;20530;-73
2023/08/07 00:28:29;;;;;;;3.50;1.80;;;11.70;25.30;;;;;;4954458;28;20541;-73
2023/08/07 00:30:55;;;;;;;2.23;1.43;;;11.80;24.30;;;;;;4954366;28;20194;-73
2023/08/07 00:33:20;;;;;;;2.40;0.97;;;11.70;24.90;;;;;;4954049;28;20414;-73
2023/08/07 00:35:46;;;;;;;2.20;1.40;;;11.70;23.90;;;;;;4954322;28;20669;-73
2023/08/07 00:38:11;;;;;;;2.40;1.10;;;11.60;24.70;;;;;;4954576;28;20550;-73
2023/08/07 00:40:38;;;;;;;2.13;1.20;;;11.60;25.10;;;;;;4954129;28;20238;-73
2023/08/07 00:43:04;;;;;;;2.23;1.43;;;11.60;26.10;;;;;;4953908;28;20174;-73
2023/08/07 00:45:32;;;;;;;2.20;0.90;;;11.50;26.40;;;;;;4954209;28;20765;-74
2023/08/07 00:47:57;;;;;;;3.50;1.00;;;11.50;25.70;;;;;;4954053;28;20178;-73
2023/08/07 00:50:23;;;;;;;2.33;1.23;;;11.50;26.20;;;;;;4954043;28;21029;-73
2023/08/07 00:52:49;;;;;;;25.57;1.70;;;11.50;26.10;;;;;;4953945;28;20208;-73
2023/08/07 00:55:14;;;;;;;3.60;1.50;;;11.50;27.00;;;;;;4954205;28;20501;-73
2023/08/07 00:57:40;;;;;;;3.73;1.60;;;11.50;27.80;;;;;;4954038;28;20673;-73
2023/08/07 01:00:07;;;;;;;9.00;1.53;;;11.40;27.30;;;;;;4954072;28;20224;-73
2023/08/07 01:02:33;;;;;;;2.20;1.20;;;11.40;27.70;;;;;;4953952;28;20249;-73
2023/08/07 01:04:59;;;;;;;2.47;1.00;;;11.30;27.00;;;;;;4953982;28;20509;-73
2023/08/07 01:07:25;;;;;;;2.30;1.00;;;11.30;27.60;;;;;;4953701;29;20185;-74
2023/08/07 01:09:50;;;;;;;2.00;1.33;;;11.30;27.30;;;;;;4953902;28;20815;-73
2023/08/07 01:12:19;;;;;;;2.53;1.43;;;11.30;27.60;;;;;;4953644;28;20182;-73
2023/08/07 01:15:20;;;;;;;3.43;1.27;;;11.30;27.60;;;;;;4953901;28;20182;-73
2023/08/07 01:17:46;;;;;;;2.30;1.00;;;11.20;27.90;;;;;;4952458;29;20426;-73
2023/08/07 01:20:12;;;;;;;2.50;1.60;;;11.20;28.50;;;;;;4954166;28;20496;-72
2023/08/07 01:22:38;;;;;;;2.13;1.00;;;11.20;27.80;;;;;;4956281;28;20414;-72
2023/08/07 01:25:04;;;;;;;3.93;1.17;;;11.20;28.20;;;;;;4957695;28;20648;-73
2023/08/07 01:27:36;;;;;;;1.93;1.13;;;11.20;27.70;;;;;;4957708;28;20240;-72
2023/08/07 01:30:22;;;;;;;2.03;1.20;;;11.20;27.50;;;;;;4957946;28;20649;-72
2023/08/07 01:33:07;;;;;;;5.63;1.83;;;11.20;28.10;;;;;;4957227;28;20418;-74
2023/08/07 01:35:37;;;;;;;2.00;1.00;;;11.10;28.50;;;;;;4956781;29;20421;-71
2023/08/07 01:38:04;;;;;;;3.30;1.37;;;11.00;28.70;;;;;;4956251;29;20574;-71
2023/08/07 01:40:30;;;;;;;3.00;1.47;;;11.00;29.30;;;;;;4957254;28;20533;-72
2023/08/07 01:42:57;;;;;;;2.90;1.83;;;11.00;29.20;;;;;;4957135;28;20516;-71
2023/08/07 01:45:27;;;;;;;3.07;1.40;;;11.00;29.20;;;;;;4957063;28;20420;-71
2023/08/07 01:47:53;;;;;;;2.23;1.10;;;11.00;29.70;;;;;;4957148;28;20504;-71
2023/08/07 01:50:22;;;;;;;4.37;1.53;;;11.00;30.10;;;;;;4957578;28;20490;-71
2023/08/07 01:52:48;;;;;;;3.93;1.40;;;10.90;30.20;;;;;;4955686;29;20532;-71
2023/08/07 01:55:15;;;;;;;2.40;1.20;;;10.90;30.40;;;;;;4957241;28;20449;-71
2023/08/07 01:57:41;;;;;;;2.77;1.70;;;10.90;30.80;;;;;;4957175;28;20941;-72
2023/08/07 02:00:08;;;;;;;2.70;1.30;;;10.90;30.90;;;;;;4957185;28;20469;-71
2023/08/07 02:02:34;;;;;;;8.50;2.23;;;10.90;30.90;;;;;;4957397;28;20178;-71
2023/08/07 02:04:59;;;;;;;2.53;1.40;;;10.80;31.10;;;;;;4956386;29;20432;-71
2023/08/07 02:07:25;;;;;;;3.43;2.10;;;10.80;31.70;;;;;;4957115;28;20205;-71
2023/08/07 02:09:50;;;;;;;2.90;1.50;;;10.80;31.70;;;;;;4957117;28;20201;-71
2023/08/07 02:12:16;;;;;;;3.00;1.40;;;10.70;31.60;;;;;;4956788;28;20178;-71
2023/08/07 02:14:41;;;;;;;2.57;1.53;;;10.80;31.60;;;;;;4956859;28;20182;-72
2023/08/07 02:17:07;;;;;;;5.13;1.50;;;10.70;31.50;;;;;;4956751;28;20182;-72
2023/08/07 02:19:32;;;;;;;3.70;1.57;;;10.80;30.80;;;;;;4956640;28;20248;-71
2023/08/07 02:21:58;;;;;;;2.37;1.27;;;10.80;31.30;;;;;;4955251;29;20174;-71
2023/08/07 02:24:23;;;;;;;2.83;1.60;;;10.90;30.40;;;;;;4956791;28;20636;-71
2023/08/07 02:26:49;;;;;;;2.20;1.30;;;10.90;30.00;;;;;;4956630;28;20189;-72
2023/08/07 02:29:14;;;;;;;2.30;1.50;;;11.00;30.20;;;;;;4956555;28;20186;-71
2023/08/07 02:31:40;;;;;;;4.20;1.50;;;11.10;28.80;;;;;;4956179;28;20189;-71
2023/08/07 02:34:05;;;;;;;3.10;1.70;;;11.10;28.60;;;;;;4955193;28;20641;-71
2023/08/07 02:36:31;;;;;;;2.40;1.23;;;11.10;27.50;;;;;;4956531;28;20185;-71
2023/08/07 02:38:56;;;;;;;2.20;1.30;;;11.10;27.50;;;;;;4956358;28;20222;-71
2023/08/07 02:41:22;;;;;;;2.57;1.80;;;11.10;27.50;;;;;;4956231;28;20194;-72
2023/08/07 02:43:47;;;;;;;2.30;1.40;;;11.00;27.70;;;;;;4956149;28;20205;-71
2023/08/07 02:46:13;;;;;;;3.10;1.57;;;11.00;27.20;;;;;;4956177;28;20582;-71
2023/08/07 02:48:39;;;;;;;2.70;1.20;;;11.00;27.40;;;;;;4956298;28;20209;-70
2023/08/07 02:51:05;;;;;;;2.80;1.43;;;10.90;27.00;;;;;;4956225;28;20198;-71
2023/08/07 02:53:31;;;;;;;2.07;1.20;;;10.90;27.10;;;;;;4955979;28;20449;-71
2023/08/07 02:55:57;;;;;;;2.33;1.20;;;10.90;27.30;;;;;;4956123;28;20185;-71
2023/08/07 02:58:22;;;;;;;2.33;1.47;;;10.90;27.20;;;;;;4956102;28;20180;-71
2023/08/07 03:00:48;;;;;;;2.17;1.33;;;11.00;26.50;;;;;;4955804;28;20210;-71
2023/08/07 03:03:13;;;;;;;5.37;1.53;;;11.00;25.70;;;;;;4955838;28;20366;-71
2023/08/07 03:05:39;;;;;;;2.87;1.50;;;11.10;24.90;;;;;;4956009;28;20182;-71
2023/08/07 03:08:04;;;;;;;2.60;1.60;;;11.10;25.20;;;;;;4955895;28;20515;-71
2023/08/07 03:10:30;;;;;;;5.50;1.60;;;11.10;25.20;;;;;;4954555;29;20253;-71
2023/08/07 03:12:55;;;;;;;2.53;1.00;;;11.20;24.00;;;;;;4955575;28;20187;-71
2023/08/07 03:15:21;;;;;;;3.10;1.60;;;11.20;24.00;;;;;;4955666;28;20197;-70
2023/08/07 03:17:46;;;;;;;6.73;1.77;;;11.30;23.50;;;;;;4955860;28;20190;-71
2023/08/07 03:20:12;;;;;;;3.57;2.27;;;11.30;23.50;;;;;;4955516;28;20232;-71
2023/08/07 03:22:37;;;;;;;3.53;0.90;;;11.30;24.30;;;;;;4955491;29;20174;-72
2023/08/07 03:25:03;;;;;;;2.70;1.50;;;11.30;23.50;;;;;;4955764;28;20174;-71
2023/08/07 03:27:29;;;;;;;2.60;1.27;;;11.30;23.50;;;;;;4955609;28;20200;-72
2023/08/07 03:29:54;;;;;;;2.23;1.20;;;11.30;23.50;;;;;;4955337;28;20441;-68
2023/08/07 03:32:20;;;;;;;2.23;1.37;;;11.30;23.50;;;;;;4955265;28;20598;-71
2023/08/07 03:34:45;;;;;;;3.57;1.50;;;11.30;23.50;;;;;;4955452;28;20174;-71
2023/08/07 03:37:11;;;;;;;3.33;1.33;;;11.20;23.30;;;;;;4955374;28;20236;-71
2023/08/07 03:39:36;;;;;;;3.03;1.90;;;11.10;23.40;;;;;;4955220;28;20658;-71
2023/08/07 03:42:02;;;;;;;2.20;1.13;;;11.00;23.30;;;;;;4955031;28;20249;-71
2023/08/07 03:44:27;;;;;;;3.17;1.33;;;10.90;24.20;;;;;;4954701;28;20182;-71
2023/08/07 03:46:56;;;;;;;3.30;1.60;;;10.90;24.70;;;;;;4955176;28;20636;-71
2023/08/07 03:49:22;;;;;;;2.33;1.23;;;10.80;24.60;;;;;;4953812;29;20224;-72
2023/08/07 03:51:49;;;;;;;7.53;1.60;;;10.80;24.90;;;;;;4954847;28;20565;-71
2023/08/07 03:54:14;;;;;;;4.33;1.43;;;10.70;25.00;;;;;;4955107;28;20417;-71
2023/08/07 03:56:40;;;;;;;2.93;1.60;;;10.70;25.60;;;;;;4955662;28;20425;-69
2023/08/07 03:59:06;;;;;;;3.20;1.63;;;10.70;25.50;;;;;;4955390;28;20206;-69
2023/08/07 04:01:32;;;;;;;3.53;1.47;;;10.70;25.30;;;;;;4954737;28;20541;-69
2023/08/07 04:03:57;;;;;;;3.33;1.10;;;10.70;25.80;;;;;;4954951;28;20429;-70
2023/08/07 04:06:23;;;;;;;2.63;1.33;;;10.70;25.90;;;;;;4954803;28;20181;-71
2023/08/07 04:08:48;;;;;;;2.50;1.20;;;10.70;25.30;;;;;;4954876;28;20182;-71
2023/08/07 04:11:14;;;;;;;5.13;1.80;;;10.70;25.60;;;;;;4954663;28;20210;-71
2023/08/07 04:13:39;;;;;;;2.87;1.43;;;10.70;26.30;;;;;;4954420;28;20248;-71
2023/08/07 04:16:05;;;;;;;3.10;1.50;;;10.70;25.20;;;;;;4955034;28;20241;-71
2023/08/07 04:18:32;;;;;;;5.37;1.97;;;10.80;25.60;;;;;;4954776;28;20182;-71
2023/08/07 04:20:58;;;;;;;3.47;1.60;;;10.90;25.00;;;;;;4954392;28;20524;-71
2023/08/07 04:23:24;;;;;;;4.43;2.13;;;11.00;24.90;;;;;;4954322;28;20421;-71
2023/08/07 04:25:50;;;;;;;3.73;1.30;;;11.00;23.80;;;;;;4954466;28;20457;-70
2023/08/07 04:28:16;;;;;;;4.90;1.53;;;11.10;24.30;;;;;;4954322;28;20736;-72
2023/08/07 04:30:43;;;;;;;2.87;2.30;;;11.20;22.40;;;;;;4952664;29;20468;-70
2023/08/07 04:33:08;;;;;;;2.47;1.30;;;11.20;23.40;;;;;;4954137;28;20558;-71
2023/08/07 04:35:34;;;;;;;4.00;1.90;;;11.20;22.10;;;;;;4954349;29;20468;-71
2023/08/07 04:38:00;;;;;;;3.23;1.70;;;11.30;21.80;;;;;;4954306;28;20262;-71
2023/08/07 04:40:26;;;;;;;4.03;1.40;;;11.30;22.00;;;;;;4954234;28;20913;-71
2023/08/07 04:42:52;;;;;;;2.40;1.30;;;11.30;21.70;;;;;;4953871;28;20427;-71
2023/08/07 04:45:17;;;;;;;2.40;1.53;;;11.30;21.30;;;;;;4954295;29;20266;-70
2023/08/07 04:47:43;;;;;;;6.83;1.90;;;11.20;21.20;;;;;;4954142;29;20178;-71
2023/08/07 04:50:09;;;;;;;2.90;1.77;;;11.20;22.00;;;;;;4954084;28;20284;-71
2023/08/07 04:52:35;;;;;;;3.13;1.60;;;11.10;21.30;;;;;;4953818;28;20185;-70
2023/08/07 04:55:01;;;;;;;2.63;1.17;;;11.10;21.70;;;;;;4954000;29;20425;-71
2023/08/07 04:57:26;;;;;;;2.80;1.70;;;11.10;21.60;;;;;;4953123;28;20536;-71
2023/08/07 04:59:52;;;;;;;3.63;1.87;;;11.10;22.50;;;;;;4954099;29;20230;-70
2023/08/07 05:02:18;;;;;;;3.93;2.20;;;11.00;22.30;;;;;;4953343;28;20186;-71
2023/08/07 05:04:44;;;;;;;3.97;2.07;;;11.10;22.30;;;;;;4953992;28;20424;-70
2023/08/07 05:07:09;;;;;;;2.40;1.57;;;11.10;22.60;;;;;;4954248;29;20421;-71
2023/08/07 05:09:35;;;;;;;3.97;2.50;;;11.10;22.90;;;;;;4953826;29;20215;-71
2023/08/07 05:12:01;;;;;;;2.77;2.00;;;11.10;23.30;;;;;;4953494;29;20186;-71
2023/08/07 05:14:27;;;;;;;3.43;1.70;;;11.10;22.40;;;;;;4953844;28;20189;-71
2023/08/07 05:16:52;;;;;;;2.40;1.63;;;11.20;22.50;;;;;;4953783;29;20191;-71
2023/08/07 05:19:18;;;;;;;3.87;1.43;;;11.20;22.90;;;;;;4953476;29;20574;-71
2023/08/07 05:21:43;;;;;;;3.80;1.60;;;11.30;22.20;;;;;;4953544;29;20200;-71
2023/08/07 05:24:09;;;;;;;3.80;1.80;;;11.40;21.50;;;;;;4953767;28;20272;-71
2023/08/07 05:26:34;;;;;;;2.10;1.30;;;11.40;21.60;;;;;;4953666;29;20657;-70
2023/08/07 05:29:00;;;;;;;3.03;1.87;;;11.50;21.80;;;;;;4953741;29;20386;-71
2023/08/07 05:31:25;;;;;;;5.43;2.00;;;11.60;21.10;;;;;;4953449;28;20194;-71
2023/08/07 05:33:51;;;;;;;2.57;1.60;;;11.70;20.70;;;;;;4952249;29;20182;-71
2023/08/07 05:36:16;;;;;;;3.60;1.97;;;11.80;19.60;;;;;;4954144;28;20680;-73
2023/08/07 05:38:42;;;;;;;3.10;1.33;;;11.90;18.90;;;;;;4953525;29;20707;-70
2023/08/07 05:41:09;;;;;;;3.23;1.90;;;12.00;18.30;;;;;;4952254;29;20584;-70
2023/08/07 05:43:35;;;;;;;2.87;1.50;;;12.20;17.20;;;;;;4953445;28;20539;-70
2023/08/07 05:46:00;;;;;;;2.90;1.33;;;12.30;16.70;;;;;;4945259;29;20439;-70
2023/08/07 05:48:26;;;;;;;2.13;1.37;;;12.40;15.70;;;;;;4935070;29;20183;-70
2023/08/07 05:50:52;;;;;;;3.30;1.50;;;12.40;15.70;;;;;;4938958;29;20202;-69
2023/08/07 05:53:18;;;;;;;2.40;1.40;;;12.30;16.20;;;;;;4953169;28;20496;-68
2023/08/07 05:55:43;;;;;;;3.20;1.50;;;12.40;16.80;;;;;;4952287;28;20506;-68
2023/08/07 05:58:09;;;;;;;2.77;1.73;;;12.50;15.80;;;;;;4954711;28;20182;-68
2023/08/07 06:00:35;;;;;;;3.67;1.67;;;12.70;15.90;;;;;;4953443;29;20585;-69
2023/08/07 06:03:00;;;;;;;4.97;1.70;;;12.90;15.20;;;;;;4953055;28;20543;-69
2023/08/07 06:05:26;;;;;;;3.90;1.83;;;13.10;13.50;;;;;;4953303;28;20190;-69
2023/08/07 06:07:51;;;;;;;3.20;1.30;;;13.10;13.40;;;;;;4953361;28;20718;-69
2023/08/07 06:10:17;;;;;;;8.00;3.27;;;13.10;11.80;;;;;;4956751;28;20215;-69
2023/08/07 06:12:42;;;;;;;6.30;2.43;;;13.00;13.20;;;;;;4956759;28;20184;-68
2023/08/07 06:15:08;;;;;;;4.37;2.00;;;13.00;12.80;;;;;;4956687;28;20266;-69
2023/08/07 06:17:34;;;;;;;4.67;2.27;;;13.20;13.50;;;;;;4956923;28;20234;-69
2023/08/07 06:20:00;;;;;;;4.20;1.97;;;13.30;11.90;;;;;;4955264;29;21000;-69
2023/08/07 06:22:25;;;;;;;2.60;1.60;;;13.40;11.00;;;;;;4956461;28;20184;-69
2023/08/07 06:24:51;;;;;;;2.87;1.73;;;13.30;10.90;;;;;;4956573;28;20174;-70
2023/08/07 06:27:16;;;;;;;2.03;1.27;;;13.30;11.10;;;;;;4956732;28;20527;-69
2023/08/07 06:29:42;;;;;;;2.37;1.67;;;13.40;12.00;;;;;;4956683;28;20236;-69
2023/08/07 06:32:08;;;;;;;4.20;1.93;;;13.40;11.10;;;;;;4956246;28;20185;-70
2023/08/07 06:34:35;;;;;;;2.60;1.63;;;13.50;11.10;;;;;;4956429;28;20268;-69
2023/08/07 06:37:00;;;;;;;2.90;1.83;;;13.60;9.90;;;;;;4956592;28;20421;-69
2023/08/07 06:39:26;;;;;;;2.10;1.27;;;13.70;9.70;;;;;;4956142;28;20465;-68
2023/08/07 06:41:52;;;;;;;15.67;1.87;;;13.70;9.80;;;;;;4956639;28;20256;-69
2023/08/07 06:44:17;;;;;;;3.77;2.10;;;13.60;10.70;;;;;;4956486;28;20181;-69
2023/08/07 06:46:43;;;;;;;2.60;1.80;;;13.70;10.40;;;;;;4956276;28;20273;-69
2023/08/07 06:49:08;;;;;;;4.90;1.90;;;13.80;9.60;;;;;;4956252;28;20543;-69
2023/08/07 06:51:34;;;;;;;2.30;1.33;;;13.80;10.50;;;;;;4955715;28;20213;-69
2023/08/07 06:53:59;;;;;;;2.53;1.50;;;13.90;9.40;;;;;;4956610;28;20181;-69
2023/08/07 06:56:25;;;;;;;3.50;1.60;;;13.90;9.70;;;;;;4955535;29;20189;-68
2023/08/07 06:58:50;;;;;;;3.30;1.63;;;14.00;9.40;;;;;;4956081;28;20177;-68
2023/08/07 07:01:16;;;;;;;4.20;1.90;;;14.10;8.90;;;;;;4955872;28;20201;-68
2023/08/07 07:03:41;;;;;;;3.20;1.67;;;14.30;9.50;;;;;;4955864;28;20178;-68
2023/08/07 07:06:07;;;;;;;4.13;2.27;;;14.40;8.40;;;;;;4955952;28;20253;-68
2023/08/07 07:08:32;;;;;;;2.87;1.67;;;15.10;7.60;;;;;;4955686;28;20241;-68
2023/08/07 07:10:58;;;;;;;3.10;2.03;;;15.20;5.80;;;;;;4955639;28;20202;-68
2023/08/07 07:13:24;;;;;;;3.07;1.37;;;15.60;4.60;;;;;;4955192;28;20264;-68
2023/08/07 07:15:54;;;;;;;2.50;2.17;;;15.70;3.90;;;;;;4955985;29;20527;-68
2023/08/07 07:18:19;;;;;;;3.40;1.93;;;16.50;1.20;;;;;;4957456;28;20461;-68
2023/08/07 07:20:45;;;;;;;4.13;1.87;;;16.10;1.20;;;;;;4987377;23;20547;-68
2023/08/07 07:23:10;;;;;;;3.33;1.70;;;16.00;2.50;;;;;;4974626;28;20178;-68
2023/08/07 07:25:36;;;;;;;2.33;1.50;;;16.00;3.00;;;;;;4967695;28;20244;-68
2023/08/07 07:28:02;;;;;;;2.70;1.57;;;16.50;1.40;;;;;;4969486;28;20185;-68
2023/08/07 07:30:27;;;;;;;3.40;1.53;;;17.60;1.00;;;;;;4968312;28;20209;-68
2023/08/07 07:32:53;;;;;;;6.20;2.40;;;18.00;1.00;;;;;;4973948;28;20185;-68
2023/08/07 07:35:18;;;;;;;4.43;2.27;;;19.30;1.00;;;;;;4971139;28;20189;-69
2023/08/07 07:37:44;;;;;;;3.03;2.30;;;18.70;1.00;;;;;;4974123;28;20272;-71
2023/08/07 07:40:10;;;;;;;3.33;1.73;;;18.40;1.00;;;;;;4973354;28;20209;-68
2023/08/07 07:42:35;;;;;;;2.43;1.80;;;17.70;1.00;;;;;;4973973;28;20775;-68
2023/08/07 07:45:01;;;;;;;3.87;1.80;;;17.60;1.00;;;;;;4974942;28;20543;-69
2023/08/07 07:47:26;;;;;;;3.13;2.03;;;18.00;1.00;;;;;;4982127;28;20180;-68
2023/08/07 07:50:06;;;;;;;3.97;1.90;;;18.40;1.00;;;;;;4993785;28;20204;-69
2023/08/07 07:52:31;;;;;;;4.53;1.90;;;18.00;1.00;;;;;;4993082;28;20188;-68
2023/08/07 07:54:57;;;;;;;4.50;1.97;;;17.80;1.00;;;;;;4989014;28;20463;-69
2023/08/07 07:57:23;;;;;;;4.97;1.77;;;17.20;1.00;;;;;;4974505;28;20268;-69
2023/08/07 07:59:48;;;;;;;2.40;1.87;;;17.60;1.00;;;;;;4974141;28;20217;-69
2023/08/07 08:02:15;;;;;;;3.10;1.80;;;17.90;1.00;;;;;;4972464;28;20269;-68
2023/08/07 08:04:41;;;;;;;2.77;1.60;;;17.40;1.00;;;;;;4972796;28;20957;-69
2023/08/07 08:07:07;;;;;;;3.97;2.00;;;16.80;1.00;;;;;;4973733;28;20451;-68
2023/08/07 08:09:33;;;;;;;3.30;2.33;;;17.40;1.00;;;;;;4973602;28;20428;-68
2023/08/07 08:11:58;;;;;;;2.83;2.10;;;19.60;1.00;;;;;;4976281;28;20219;-69
2023/08/07 08:14:24;;;;;;;8.03;3.10;;;19.70;1.00;;;;;;4993062;28;20408;-69
2023/08/07 08:16:49;;;;;;;2.57;2.27;;;19.90;1.00;;;;;;4990131;28;20204;-69
2023/08/07 08:19:16;;;;;;;2.70;2.20;;;19.60;1.00;;;;;;4972375;28;20236;-69
2023/08/07 08:21:42;;;;;;;2.80;2.43;;;20.10;1.00;;;;;;4971822;28;20316;-69
2023/08/07 08:24:07;;;;;;;2.93;2.73;;;20.50;1.00;;;;;;4971574;28;20437;-69
2023/08/07 08:26:36;;;;;;;3.10;2.77;;;21.40;1.00;;;;;;4973571;28;20771;-69
2023/08/07 08:29:01;;;;;;;8.53;2.60;;;19.80;1.00;;;;;;4973670;28;20182;-68
2023/08/07 08:31:27;;;;;;;2.50;2.30;;;19.90;1.00;;;;;;4973602;28;20448;-69
2023/08/07 08:33:53;;;;;;;4.47;3.20;;;19.90;1.00;;;;;;4973523;28;20181;-69
2023/08/07 08:36:19;;;;;;;3.47;3.17;;;20.50;1.00;;;;;;4973039;28;20476;-69
2023/08/07 08:38:46;;;;;;;3.30;3.00;;;22.00;1.00;;;;;;4988735;28;20200;-68
2023/08/07 08:41:12;;;;;;;4.73;3.10;;;23.60;1.00;;;;;;4973815;28;20663;-68
2023/08/07 08:43:40;;;;;;;4.17;3.17;;;24.10;1.00;;;;;;4969778;28;20559;-69
2023/08/07 08:46:06;;;;;;;3.67;3.37;;;22.30;1.00;;;;;;4972739;28;20717;-69
2023/08/07 08:48:35;;;;;;;3.40;3.10;;;21.70;1.00;;;;;;4972813;28;20511;-69
2023/08/07 08:51:01;;;;;;;3.20;2.90;;;21.20;1.00;;;;;;4973217;28;20205;-69
2023/08/07 08:53:27;;;;;;;3.77;3.47;;;23.20;1.00;;;;;;4972969;28;20428;-70
2023/08/07 08:55:53;;;;;;;4.20;3.90;;;24.10;1.00;;;;;;4973131;28;20424;-69
2023/08/07 08:58:21;;;;;;;4.03;3.63;;;22.30;1.00;;;;;;4972493;28;20798;-69
2023/08/07 09:00:47;;;;;;;6.13;3.37;;;23.30;1.00;;;;;;4972378;28;20682;-68
2023/08/07 09:03:13;;;;;;;3.93;3.60;;;22.40;1.00;;;;;;4974102;28;20790;-69
2023/08/07 09:05:39;;;;;;;3.63;3.43;;;23.20;1.00;;;;;;4972469;28;20429;-69
2023/08/07 09:08:06;;;;;;;3.17;2.97;;;23.80;1.00;;;;;;4972503;28;20425;-69
2023/08/07 09:10:32;;;;;;;3.70;3.40;;;24.00;1.00;;;;;;4971358;28;20819;-68
2023/08/07 09:13:04;;;;;;;3.93;3.53;;;22.80;1.00;;;;;;4972726;28;20460;-69
2023/08/07 09:15:32;;;;;;;10.20;3.70;;;21.00;1.00;;;;;;4972898;28;20438;-69
2023/08/07 09:17:59;;;;;;;3.67;3.37;;;20.20;1.00;;;;;;4972294;28;20448;-69
2023/08/07 09:20:25;;;;;;;3.70;2.97;;;19.50;1.00;;;;;;4971977;28;20945;-68
2023/08/07 09:22:51;;;;;;;4.40;3.03;;;19.20;1.00;;;;;;4972331;28;20457;-68
2023/08/07 09:25:28;;;;;;;3.10;2.90;;;19.40;1.00;;;;;;4972019;28;20472;-68
2023/08/07 09:27:56;;;;;;;3.77;2.73;;;19.10;1.00;;;;;;4972936;28;20428;-70
2023/08/07 09:30:27;;;;;;;2.30;2.10;;;19.30;1.00;;;;;;4972669;28;20459;-68
2023/08/07 09:32:52;;;;;;;2.97;2.60;;;19.10;1.00;;;;;;4971634;28;20420;-69
2023/08/07 09:35:21;;;;;;;3.67;2.90;;;19.10;1.00;;;;;;4973578;28;20425;-69
2023/08/07 09:37:46;;;;;;;3.07;2.23;;;19.20;1.00;;;;;;4972369;28;20196;-70
2023/08/07 09:40:15;;;;;;;2.80;2.60;;;19.30;1.00;;;;;;4967924;28;20548;-69
2023/08/07 09:42:40;;;;;;;3.80;2.90;;;18.90;1.00;;;;;;4970313;28;20515;-70
2023/08/07 09:45:25;;;;;;;2.67;2.47;;;18.90;1.00;;;;;;4976705;28;20424;-69
2023/08/07 09:48:02;;;;;;;3.37;3.07;;;19.00;1.00;;;;;;4974919;28;20185;-69
2023/08/07 09:50:28;;;;;;;3.10;2.80;;;19.20;1.00;;;;;;4976602;28;20904;-71
2023/08/07 09:52:55;;;;;;;4.20;3.00;;;19.30;1.00;;;;;;4971881;28;20536;-69
2023/08/07 09:55:21;;;;;;;2.70;2.50;;;19.40;1.00;;;;;;4968973;28;20425;-69
2023/08/07 09:57:48;;;;;;;2.67;2.47;;;19.40;1.00;;;;;;4976631;28;20602;-69
2023/08/07 10:00:15;;;;;;;3.30;3.00;;;19.50;1.00;;;;;;4975042;28;20586;-69
2023/08/07 10:02:44;;;;;;;3.00;2.80;;;19.50;1.00;;;;;;4975990;28;20575;-69
2023/08/07 10:05:10;;;;;;;3.60;2.70;;;19.70;1.00;;;;;;4976282;28;20425;-68
2023/08/07 10:07:38;;;;;;;3.80;3.50;;;20.00;1.00;;;;;;4972168;28;20441;-70
2023/08/07 10:10:04;;;;;;;2.90;2.70;;;20.20;1.00;;;;;;4975013;28;20452;-71
2023/08/07 10:12:31;;;;;;;9.87;2.87;;;19.50;1.00;;;;;;4973812;28;20432;-70
2023/08/07 10:14:57;;;;;;;2.90;2.70;;;19.30;1.00;;;;;;4969124;28;20923;-70
2023/08/07 10:17:23;;;;;;;2.87;2.60;;;19.40;1.00;;;;;;4972730;28;20436;-70
2023/08/07 10:19:50;;;;;;;2.93;2.73;;;19.40;1.00;;;;;;4975450;28;21043;-71
2023/08/07 10:22:18;;;;;;;3.20;3.00;;;19.30;1.00;;;;;;4974994;28;20448;-69
2023/08/07 10:24:49;;;;;;;3.00;2.80;;;19.40;1.00;;;;;;4976075;28;20413;-70
2023/08/07 10:27:18;;;;;;;2.67;2.47;;;19.50;1.00;;;;;;4976132;28;20413;-70
2023/08/07 10:29:49;;;;;;;4.53;2.97;;;19.70;1.00;;;;;;4975580;28;20442;-71
2023/08/07 10:32:18;;;;;;;2.70;2.50;;;20.10;1.00;;;;;;4975704;28;20421;-70
2023/08/07 10:34:49;;;;;;;3.53;3.23;;;20.20;1.00;;;;;;4975829;28;20417;-70
2023/08/07 10:37:40;;;;;;;3.13;2.90;;;19.90;1.00;;;;;;4976009;28;20416;-70
2023/08/07 10:40:09;;;;;;;2.93;2.73;;;19.70;1.00;;;;;;4975624;28;20461;-70
2023/08/07 10:42:54;;;;;;;2.50;2.30;;;19.80;1.00;;;;;;4975294;28;20424;-70
2023/08/07 10:45:22;;;;;;;3.17;2.97;;;19.90;1.00;;;;;;4975414;28;20436;-70
2023/08/07 10:48:18;;;;;;;3.40;3.10;;;19.90;1.00;;;;;;4974580;28;20428;-70
2023/08/07 10:50:53;;;;;;;3.73;3.00;;;19.70;1.00;;;;;;4962841;28;20829;-70
2023/08/07 10:53:29;;;;;;;3.93;3.13;;;19.80;1.00;;;;;;4975670;28;20518;-70
2023/08/07 10:55:57;;;;;;;3.00;2.80;;;20.30;1.00;;;;;;4968093;28;20460;-69
2023/08/07 10:58:30;;;;;;;3.27;3.07;;;20.30;1.00;;;;;;4974586;28;20801;-67
2023/08/07 11:01:21;;;;;;;3.13;2.90;;;20.30;1.00;;;;;;4973596;28;20499;-67
2023/08/07 11:03:58;;;;;;;3.60;3.30;;;19.80;1.00;;;;;;4955720;28;20659;-70
2023/08/07 11:06:30;;;;;;;3.23;2.90;;;19.60;1.00;;;;;;4956027;28;20452;-70
2023/08/07 11:08:56;;;;;;;3.00;2.80;;;19.60;1.00;;;;;;4966256;28;20781;-70
2023/08/07 11:11:22;;;;;;;3.03;2.73;;;19.80;1.00;;;;;;4974860;28;20440;-69
2023/08/07 11:13:47;;;;;;;3.23;2.93;;;19.90;1.00;;;;;;4968966;28;20547;-68
2023/08/07 11:16:13;;;;;;;3.43;2.90;;;20.00;1.00;;;;;;4955837;28;20170;-70
2023/08/07 11:18:42;;;;;;;3.27;2.97;;;20.10;1.00;;;;;;4955638;29;20210;-70
2023/08/07 11:21:10;;;;;;;3.90;3.37;;;20.20;1.00;;;;;;4955568;29;20245;-71
2023/08/07 11:23:36;;;;;;;4.73;2.80;;;20.40;1.00;;;;;;4972072;28;20435;-70
2023/08/07 11:26:03;;;;;;;2.90;2.67;;;20.60;1.00;;;;;;4974886;28;20762;-70
2023/08/07 11:28:28;;;;;;;3.20;2.90;;;20.30;1.00;;;;;;4975079;28;20978;-70
2023/08/07 11:30:55;;;;;;;3.23;2.93;;;20.60;1.00;;;;;;4974866;28;20524;-68
2023/08/07 11:33:23;;;;;;;3.17;2.97;;;20.70;1.00;;;;;;4974557;28;20180;-70
2023/08/07 11:35:49;;;;;;;3.10;2.90;;;20.80;1.00;;;;;;4974858;28;20433;-72
2023/08/07 11:38:34;;;;;;;3.10;2.90;;;20.50;1.00;;;;;;4974725;28;20934;-68
2023/08/07 11:41:02;;;;;;;2.40;2.20;;;20.40;1.00;;;;;;4974948;28;20464;-68
2023/08/07 11:43:29;;;;;;;3.53;3.13;;;19.70;1.00;;;;;;4973316;28;20435;-69
2023/08/07 11:45:56;;;;;;;5.90;2.60;;;19.40;1.00;;;;;;4974938;28;20444;-69
2023/08/07 11:48:27;;;;;;;2.70;2.50;;;19.00;1.00;;;;;;4974408;28;20690;-70
2023/08/07 11:50:53;;;;;;;3.03;2.83;;;18.70;1.00;;;;;;4964400;28;20448;-69
2023/08/07 11:53:23;;;;;;;3.03;2.73;;;18.60;1.00;;;;;;4954915;29;20934;-67
2023/08/07 11:55:56;;;;;;;2.90;2.70;;;18.60;1.00;;;;;;4955266;28;20876;-68
2023/08/07 11:58:23;;;;;;;2.67;2.43;;;18.30;1.00;;;;;;4955594;29;20424;-70
2023/08/07 12:00:49;;;;;;;3.00;2.80;;;18.30;1.00;;;;;;4962319;28;20468;-70
2023/08/07 12:03:27;;;;;;;3.03;2.70;;;18.50;1.00;;;;;;4973696;28;20500;-70
2023/08/07 12:05:54;;;;;;;5.43;3.40;;;18.50;1.00;;;;;;4973137;28;20601;-70
2023/08/07 12:08:20;;;;;;;2.83;2.63;;;18.70;1.00;;;;;;4974214;28;20408;-70
2023/08/07 12:10:53;;;;;;;3.17;2.87;;;19.20;1.00;;;;;;4973945;28;20433;-69
2023/08/07 12:13:23;;;;;;;4.83;2.80;;;19.70;1.00;;;;;;4972612;28;20185;-70
2023/08/07 12:15:53;;;;;;;3.13;2.90;;;19.60;1.00;;;;;;4974535;28;20424;-70
2023/08/07 12:18:20;;;;;;;2.40;2.20;;;18.90;1.00;;;;;;4973871;28;20926;-70
2023/08/07 12:20:46;;;;;;;3.30;3.00;;;18.20;1.00;;;;;;4973625;28;20468;-70
2023/08/07 12:23:18;;;;;;;3.50;2.27;;;17.70;1.00;;;;;;4973812;28;20952;-70
2023/08/07 12:25:44;;;;;;;3.60;2.60;;;17.50;1.00;;;;;;4973935;28;20173;-70
2023/08/07 12:28:10;;;;;;;2.90;2.53;;;17.30;1.00;;;;;;4973750;28;20416;-70
2023/08/07 12:30:37;;;;;;;3.70;2.37;;;17.00;1.00;;;;;;4973687;28;20432;-70
2023/08/07 12:33:04;;;;;;;2.60;2.30;;;16.90;1.00;;;;;;4973490;28;20177;-70
2023/08/07 12:35:30;;;;;;;3.20;2.43;;;16.80;1.00;;;;;;4973651;28;20499;-69
2023/08/07 12:37:56;;;;;;;3.67;2.43;;;16.80;1.00;;;;;;4973546;28;20420;-70
2023/08/07 12:40:22;;;;;;;2.93;2.30;;;16.80;1.00;;;;;;4973451;28;20468;-69
2023/08/07 12:42:51;;;;;;;2.83;2.53;;;16.70;1.00;;;;;;4973426;28;20435;-71
2023/08/07 12:45:18;;;;;;;3.10;2.40;;;16.80;1.00;;;;;;4973597;28;20409;-70
2023/08/07 12:47:44;;;;;;;2.13;1.90;;;16.90;1.00;;;;;;4973375;28;20416;-70
2023/08/07 12:50:10;;;;;;;2.90;2.50;;;17.10;1.00;;;;;;4973433;28;20515;-70